createdAt,value
2019-04-24T00:01:33.738Z,50.97
2019-04-24T00:06:38.936Z,51.00
2019-04-24T00:09:18.254Z,53.40
2019-04-24T00:11:56.056Z,53.37
2019-04-24T00:14:27.265Z,52.07
2019-04-24T00:16:59.203Z,54.33
2019-04-24T00:24:28.996Z,55.77
2019-04-24T00:26:43.931Z,51.70
2019-04-24T00:29:19.678Z,51.90
2019-04-24T00:31:52.215Z,53.30
2019-04-24T00:34:19.655Z,53.83
2019-04-24T00:39:13.768Z,52.13
2019-04-24T00:41:47.131Z,53.47
2019-04-24T00:44:13.547Z,54.67
2019-04-24T00:49:12.960Z,52.17
2019-04-24T00:51:38.085Z,50.37
2019-04-24T00:54:07.760Z,51.90
2019-04-24T00:59:17.850Z,52.63
2019-04-24T01:04:49.385Z,53.17
2019-04-24T01:12:15.705Z,51.77
2019-04-24T01:14:36.641Z,53.97
2019-04-24T01:19:49.584Z,53.77
2019-04-24T01:22:22.186Z,53.30
2019-04-24T01:24:37.871Z,55.27
2019-04-24T01:27:10.484Z,56.80
2019-04-24T01:32:05.690Z,56.30
2019-04-24T01:37:32.055Z,57.50
2019-04-24T01:39:55.850Z,53.80
2019-04-24T01:42:26.866Z,54.60
2019-04-24T01:45:05.543Z,56.10
2019-04-24T01:47:32.266Z,53.80
2019-04-24T01:50:04.298Z,57.67
2019-04-24T01:55:08.704Z,57.47
2019-04-24T02:00:14.204Z,56.40
2019-04-24T02:05:18.239Z,59.67
2019-04-24T02:08:00.392Z,56.23
2019-04-24T02:17:51.756Z,54.20
2019-04-24T02:20:31.411Z,56.63
2019-04-24T02:22:58.586Z,57.03
2019-04-24T02:27:56.513Z,58.03
2019-04-24T02:30:33.510Z,55.37
2019-04-24T02:35:56.110Z,56.97
2019-04-24T02:40:29.187Z,58.80
2019-04-24T02:45:46.122Z,58.90
2019-04-24T02:50:33.249Z,59.03
2019-04-24T02:55:13.742Z,56.30
2019-04-24T02:57:46.977Z,59.47
2019-04-24T03:05:26.152Z,56.37
2019-04-24T03:08:12.272Z,55.50
2019-04-24T03:10:40.157Z,59.17
2019-04-24T03:15:35.339Z,54.27
2019-04-24T03:17:46.220Z,55.90
2019-04-24T03:20:32.438Z,58.37
2019-04-24T03:22:48.885Z,59.87
2019-04-24T03:33:27.739Z,58.33
2019-04-24T03:35:57.203Z,60.60
2019-04-24T03:41:05.600Z,57.27
2019-04-24T03:43:21.260Z,58.83
2019-04-24T03:53:42.040Z,60.57
2019-04-24T03:56:06.922Z,57.57
2019-04-24T04:01:22.854Z,55.83
2019-04-24T04:03:58.199Z,61.30
2019-04-24T04:06:29.196Z,58.70
2019-04-24T04:16:35.506Z,56.13
2019-04-24T04:26:25.960Z,57.20
2019-04-24T04:29:00.771Z,49.57
2019-04-24T04:31:32.510Z,53.03
2019-04-24T04:34:05.925Z,53.77
2019-04-24T04:36:41.274Z,52.67
2019-04-24T04:38:49.200Z,50.90
2019-04-24T04:41:37.306Z,52.23
2019-04-24T04:44:10.157Z,51.20
2019-04-24T04:49:31.536Z,54.17
2019-04-24T04:52:02.619Z,56.23
2019-04-24T04:56:44.096Z,55.17
2019-04-24T04:59:18.435Z,55.87
2019-04-24T05:01:56.798Z,55.13
2019-04-24T05:04:25.807Z,54.07
2019-04-24T05:24:28.882Z,52.27
2019-04-24T05:27:12.305Z,52.93
2019-04-24T05:29:31.949Z,53.67
2019-04-24T05:34:32.877Z,50.60
2019-04-24T05:36:50.813Z,53.00
2019-04-24T05:42:06.483Z,51.57
2019-04-24T05:44:23.999Z,49.17
2019-04-24T05:47:09.950Z,52.40
2019-04-24T05:49:45.639Z,50.93
2019-04-24T05:54:32.058Z,55.53
2019-04-24T05:57:46.518Z,56.27
2019-04-24T05:59:47.395Z,52.67
2019-04-24T06:02:29.996Z,51.33
2019-04-24T06:07:17.168Z,47.90
2019-04-24T06:10:12.913Z,48.67
2019-04-24T06:15:47.085Z,46.47
2019-04-24T06:23:24.510Z,51.33
2019-04-24T06:25:57.765Z,51.53
2019-04-24T06:28:15.348Z,51.13
2019-04-24T06:32:58.749Z,52.23
2019-04-24T06:38:08.364Z,49.37
2019-04-24T06:41:09.484Z,50.47
2019-04-24T06:43:27.813Z,50.80
2019-04-24T06:48:21.306Z,50.93
2019-04-24T06:53:21.882Z,55.07
2019-04-24T06:56:06.723Z,54.50
2019-04-24T07:01:02.319Z,51.07
2019-04-24T07:04:05.951Z,48.83
2019-04-24T07:06:22.371Z,47.93
2019-04-24T07:08:37.240Z,50.80
2019-04-24T07:11:23.348Z,48.57
2019-04-24T07:14:01.013Z,51.53
2019-04-24T07:16:33.809Z,47.33
2019-04-24T07:18:39.929Z,45.50
2019-04-24T07:21:23.142Z,47.97
2019-04-24T07:23:57.789Z,50.87
2019-04-24T07:26:34.509Z,51.33
2019-04-24T07:28:52.463Z,51.07
2019-04-24T07:34:22.974Z,47.53
2019-04-24T07:36:52.377Z,52.07
2019-04-24T07:39:43.678Z,45.30
2019-04-24T07:44:29.412Z,51.20
2019-04-24T07:47:01.226Z,48.87
2019-04-24T07:49:31.850Z,53.30
2019-04-24T07:57:05.944Z,50.53
2019-04-24T07:59:57.575Z,51.93
2019-04-24T08:02:11.929Z,56.40
2019-04-24T08:04:50.251Z,51.50
2019-04-24T08:07:09.410Z,52.80
2019-04-24T08:12:18.886Z,50.97
2019-04-24T08:15:03.365Z,48.80
2019-04-24T08:17:19.813Z,51.57
2019-04-24T08:22:10.816Z,49.80
2019-04-24T08:24:55.888Z,49.33
2019-04-24T08:29:44.909Z,50.37
2019-04-24T08:32:11.449Z,51.40
2019-04-24T08:34:39.092Z,53.20
2019-04-24T08:37:09.895Z,50.53
2019-04-24T08:40:04.997Z,48.43
2019-04-24T08:45:02.310Z,48.53
2019-04-24T08:47:35.670Z,49.53
2019-04-24T08:52:48.518Z,45.97
2019-04-24T08:57:30.485Z,49.17
2019-04-24T09:02:38.122Z,47.03
2019-04-24T09:05:02.689Z,44.60
2019-04-24T09:07:52.574Z,44.43
2019-04-24T09:13:16.764Z,42.27
2019-04-24T09:17:59.417Z,43.10
2019-04-24T09:20:33.853Z,40.17
2019-04-24T09:27:59.978Z,36.67
2019-04-24T09:30:33.655Z,37.90
2019-04-24T09:33:17.197Z,36.77
2019-04-24T09:36:10.796Z,35.57
2019-04-24T09:38:37.872Z,36.10
2019-04-24T09:43:56.602Z,33.53
2019-04-24T09:46:17.933Z,33.60
2019-04-24T09:49:00.516Z,34.67
2019-04-24T09:53:55.271Z,29.77
2019-04-24T09:56:23.176Z,28.80
2019-04-24T09:59:00.744Z,31.20
2019-04-24T10:01:37.253Z,29.63
2019-04-24T10:04:03.155Z,29.77
2019-04-24T10:06:53.668Z,30.50
2019-04-24T10:08:58.011Z,30.23
2019-04-24T10:11:41.260Z,28.80
2019-04-24T10:14:09.389Z,29.03
2019-04-24T10:16:45.601Z,28.37
2019-04-24T10:19:41.347Z,28.00
2019-04-24T10:21:43.759Z,25.07
2019-04-24T10:26:43.226Z,26.07
2019-04-24T10:29:26.578Z,25.93
2019-04-24T10:32:12.325Z,26.37
2019-04-24T10:34:30.829Z,24.33
2019-04-24T10:37:19.988Z,25.60
2019-04-24T10:42:33.846Z,25.53
2019-04-24T10:45:07.245Z,24.97
2019-04-24T10:50:19.130Z,22.77
2019-04-24T10:53:01.613Z,22.73
2019-04-24T10:55:44.007Z,24.43
2019-04-24T11:00:38.379Z,21.87
2019-04-24T11:03:11.176Z,23.20
2019-04-24T11:10:41.706Z,22.27
2019-04-24T11:13:17.474Z,23.50
2019-04-24T11:18:19.913Z,21.93
2019-04-24T11:21:18.934Z,20.00
2019-04-24T11:23:27.934Z,21.30
2019-04-24T11:28:49.338Z,19.13
2019-04-24T11:31:17.846Z,17.60
2019-04-24T11:34:11.169Z,15.63
2019-04-24T11:36:48.254Z,8.30
2019-04-24T11:49:30.200Z,9.20
2019-04-24T11:52:24.410Z,8.93
2019-04-24T11:54:58.614Z,9.30
2019-04-24T11:57:43.611Z,9.73
2019-04-24T11:59:27.040Z,9.60
2019-04-24T12:02:28.869Z,9.63
2019-04-24T12:09:58.455Z,9.43
2019-04-24T12:12:14.588Z,8.87
2019-04-24T12:14:46.473Z,8.90
2019-04-24T12:17:42.067Z,7.50
2019-04-24T12:20:09.505Z,8.33
2019-04-24T12:25:01.279Z,7.87
2019-04-24T12:27:44.560Z,7.40
2019-04-24T12:30:01.043Z,5.50
2019-04-24T12:32:48.942Z,7.07
2019-04-24T12:35:29.021Z,6.80
2019-04-24T12:38:04.634Z,5.30
2019-04-24T12:40:35.413Z,5.57
2019-04-24T12:43:08.722Z,4.77
2019-04-24T12:47:53.001Z,4.60
2019-04-24T12:53:00.361Z,4.17
2019-04-24T13:00:40.419Z,4.13
2019-04-24T13:03:26.369Z,4.47
2019-04-24T13:08:11.369Z,3.60
2019-04-24T13:10:56.253Z,5.07
2019-04-24T13:13:15.717Z,4.43
2019-04-24T13:16:01.126Z,3.93
2019-04-24T13:18:49.501Z,4.13
2019-04-24T13:20:30.386Z,4.97
2019-04-24T13:23:08.760Z,4.67
2019-04-24T13:26:01.378Z,3.83
2019-04-24T13:28:45.985Z,5.67
2019-04-24T13:31:23.833Z,4.93
2019-04-24T13:36:41.773Z,4.47
2019-04-24T13:38:49.265Z,5.27
2019-04-24T13:41:30.012Z,5.00
2019-04-24T13:46:06.571Z,5.20
2019-04-24T13:51:09.915Z,4.10
2019-04-24T13:56:04.895Z,5.60
2019-04-24T14:01:33.022Z,5.03
2019-04-24T14:04:02.104Z,4.90
2019-04-24T14:06:27.237Z,4.73
2019-04-24T14:11:44.615Z,4.93
2019-04-24T14:13:55.815Z,4.50
2019-04-24T14:18:46.206Z,5.60
2019-04-24T14:21:11.248Z,5.40
2019-04-24T14:23:51.459Z,5.83
2019-04-24T14:28:46.503Z,5.97
2019-04-24T14:31:10.731Z,5.53
2019-04-24T14:41:14.957Z,5.47
2019-04-24T14:44:10.099Z,6.33
2019-04-24T14:46:20.308Z,5.17
2019-04-24T14:48:48.939Z,6.20
2019-04-24T14:51:24.256Z,6.33
2019-04-24T14:53:46.340Z,5.90
2019-04-24T14:58:45.695Z,5.57
2019-04-24T15:01:10.352Z,6.90
2019-04-24T15:03:40.262Z,5.37
2019-04-24T15:06:16.097Z,5.77
2019-04-24T15:11:06.556Z,5.97
2019-04-24T15:14:01.790Z,6.50
2019-04-24T15:16:35.984Z,6.30
2019-04-24T15:18:45.460Z,5.50
2019-04-24T15:21:11.997Z,6.00
2019-04-24T15:23:56.124Z,6.40
2019-04-24T15:29:01.823Z,6.10
2019-04-24T15:33:35.248Z,7.17
2019-04-24T15:36:15.973Z,6.93
2019-04-24T15:38:31.494Z,6.53
2019-04-24T15:41:11.946Z,5.20
2019-04-24T15:43:24.948Z,5.00
2019-04-24T15:45:56.545Z,6.47
2019-04-24T15:48:38.764Z,6.23
2019-04-24T15:52:55.398Z,6.43
2019-04-24T15:55:24.404Z,6.17
2019-04-24T15:57:52.331Z,6.20
2019-04-24T16:00:58.649Z,8.47
2019-04-24T16:03:38.579Z,5.60
2019-04-24T16:05:22.510Z,5.90
2019-04-24T16:07:51.437Z,6.43
2019-04-24T16:10:20.444Z,6.80
2019-04-24T16:12:47.796Z,6.03
2019-04-24T16:15:56.741Z,5.80
2019-04-24T16:20:47.942Z,6.27
2019-04-24T16:23:12.590Z,6.83
2019-04-24T16:25:42.156Z,6.63
2019-04-24T16:28:14.315Z,5.80
2019-04-24T16:30:38.564Z,7.07
2019-04-24T16:33:25.926Z,6.80
2019-04-24T16:35:51.690Z,6.00
2019-04-24T16:43:20.125Z,7.50
2019-04-24T16:46:36.965Z,6.87
2019-04-24T16:48:29.615Z,6.10
2019-04-24T16:51:03.397Z,6.00
2019-04-24T16:53:30.425Z,5.97
2019-04-24T16:58:28.311Z,5.90
2019-04-24T17:01:17.830Z,6.20
2019-04-24T17:06:04.129Z,6.50
2019-04-24T17:08:29.653Z,6.67
2019-04-24T17:11:06.399Z,5.80
2019-04-24T17:13:25.715Z,6.83
2019-04-24T17:16:13.001Z,6.60
2019-04-24T17:18:38.003Z,7.60
2019-04-24T17:23:35.087Z,6.27
2019-04-24T17:26:08.237Z,7.33
2019-04-24T17:31:04.122Z,6.27
2019-04-24T17:33:26.694Z,7.33
2019-04-24T17:35:59.852Z,6.37
2019-04-24T17:37:57.605Z,7.80
2019-04-24T17:40:29.442Z,6.97
2019-04-24T17:43:17.207Z,6.67
2019-04-24T17:45:55.393Z,7.17
2019-04-24T17:48:13.477Z,6.30
2019-04-24T17:53:20.147Z,8.07
2019-04-24T17:55:56.394Z,7.40
2019-04-24T17:57:57.713Z,7.13
2019-04-24T18:00:23.605Z,7.27
2019-04-24T18:02:51.328Z,6.90
2019-04-24T18:05:18.809Z,6.90
2019-04-24T18:07:46.181Z,6.73
2019-04-24T18:10:13.822Z,7.33
2019-04-24T18:12:41.784Z,7.40
2019-04-24T18:15:09.242Z,8.27
2019-04-24T18:17:36.581Z,9.27
2019-04-24T18:20:05.524Z,8.50
2019-04-24T18:22:39.961Z,7.30
2019-04-24T18:25:19.876Z,6.70
2019-04-24T18:27:48.829Z,7.73
2019-04-24T18:30:17.841Z,8.07
2019-04-24T18:32:45.109Z,8.37
2019-04-24T18:35:12.592Z,7.13
2019-04-24T18:37:42.689Z,8.97
2019-04-24T18:40:09.424Z,7.40
2019-04-24T18:42:36.805Z,8.00
2019-04-24T18:45:06.199Z,7.97
2019-04-24T18:47:33.565Z,8.80
2019-04-24T18:50:02.384Z,8.03
2019-04-24T18:52:30.050Z,6.70
2019-04-24T18:54:57.389Z,8.10
2019-04-24T18:57:24.772Z,8.40
2019-04-24T18:59:52.247Z,9.10
2019-04-24T19:02:19.641Z,8.50
2019-04-24T19:04:47.029Z,8.50
2019-04-24T19:07:14.893Z,8.90
2019-04-24T19:09:42.248Z,9.03
2019-04-24T19:12:09.705Z,8.10
2019-04-24T19:14:37.048Z,9.40
2019-04-24T19:17:04.418Z,9.27
2019-04-24T19:19:32.244Z,8.57
2019-04-24T19:22:01.174Z,8.53
2019-04-24T19:24:28.662Z,9.03
2019-04-24T19:26:56.109Z,10.27
2019-04-24T19:29:23.385Z,8.70
2019-04-24T19:31:51.438Z,8.90
2019-04-24T19:34:18.840Z,9.93
2019-04-24T19:36:46.145Z,7.80
2019-04-24T19:39:14.270Z,9.00
2019-04-24T19:41:43.141Z,7.73
2019-04-24T19:44:11.773Z,8.53
2019-04-24T19:46:41.070Z,8.53
2019-04-24T19:49:08.693Z,7.80
2019-04-24T19:51:35.961Z,7.80
2019-04-24T19:54:03.307Z,9.17
2019-04-24T19:56:30.604Z,8.63
2019-04-24T19:58:57.885Z,8.90
2019-04-24T20:01:25.310Z,8.37
2019-04-24T20:03:52.605Z,7.43
2019-04-24T20:06:20.353Z,7.90
2019-04-24T20:08:47.646Z,7.10
2019-04-24T20:11:19.301Z,9.07
2019-04-24T20:13:46.582Z,8.07
2019-04-24T20:16:14.466Z,7.93
2019-04-24T20:18:42.116Z,9.03
2019-04-24T20:21:09.476Z,8.20
2019-04-24T20:23:37.340Z,8.60
2019-04-24T20:26:06.281Z,7.50
2019-04-24T20:28:33.548Z,7.70
2019-04-24T20:31:01.744Z,8.27
2019-04-24T20:33:29.195Z,9.00
2019-04-24T20:35:56.465Z,7.90
2019-04-24T20:38:23.818Z,9.40
2019-04-24T20:40:51.124Z,9.73
2019-04-24T20:43:18.411Z,7.93
2019-04-24T20:45:45.745Z,8.53
2019-04-24T20:48:13.337Z,8.33
2019-04-24T20:50:41.563Z,9.80
2019-04-24T20:53:09.021Z,7.77
2019-04-24T20:55:36.320Z,9.07
2019-04-24T20:58:03.665Z,9.63
2019-04-24T21:00:31.657Z,8.57
2019-04-24T21:02:59.181Z,8.60
2019-04-24T21:05:28.371Z,10.27
2019-04-24T21:08:06.257Z,8.60
2019-04-24T21:10:35.168Z,8.67
2019-04-24T21:13:02.441Z,8.70
2019-04-24T21:15:31.347Z,7.83
2019-04-24T21:17:58.816Z,8.63
2019-04-24T21:20:26.294Z,8.30
2019-04-24T21:22:53.640Z,8.80
2019-04-24T21:25:23.180Z,8.60
2019-04-24T21:27:51.416Z,9.03
2019-04-24T21:30:19.615Z,8.90
2019-04-24T21:32:48.008Z,8.73
2019-04-24T21:35:15.357Z,8.87
2019-04-24T21:37:42.672Z,8.70
2019-04-24T21:40:11.474Z,8.83
2019-04-24T21:42:38.816Z,8.43
2019-04-24T21:45:06.576Z,8.07
2019-04-24T21:47:33.847Z,9.27
2019-04-24T21:50:01.653Z,10.83
2019-04-24T21:52:29.133Z,13.57
2019-04-24T21:54:56.409Z,9.87
2019-04-24T21:57:23.698Z,10.30
2019-04-24T21:59:51.365Z,9.07
2019-04-24T22:02:31.512Z,9.97
2019-04-24T22:05:03.970Z,8.83
2019-04-24T22:07:36.693Z,8.73
2019-04-24T22:10:01.948Z,8.77
2019-04-24T22:12:29.529Z,8.87
2019-04-24T22:14:56.935Z,9.20
2019-04-24T22:17:24.874Z,8.87
2019-04-24T22:19:53.290Z,8.50
2019-04-24T22:22:34.193Z,9.90
2019-04-24T22:25:21.513Z,8.23
2019-04-24T22:27:48.786Z,8.60
2019-04-24T22:30:20.890Z,8.17
2019-04-24T22:32:48.213Z,8.00
2019-04-24T22:35:17.192Z,8.00
2019-04-24T22:37:44.533Z,8.80
2019-04-24T22:40:13.650Z,7.57
2019-04-24T22:42:42.587Z,8.97
2019-04-24T22:45:10.346Z,10.30
2019-04-24T22:47:38.694Z,8.40
2019-04-24T22:50:06.420Z,8.97
2019-04-24T22:52:33.876Z,8.23
2019-04-24T22:55:02.045Z,8.47
2019-04-24T22:57:30.647Z,8.30
2019-04-24T22:59:58.459Z,9.27
2019-04-24T23:02:25.776Z,9.13
2019-04-24T23:04:53.050Z,8.70
2019-04-24T23:07:20.321Z,9.10
2019-04-24T23:09:47.624Z,8.70
2019-04-24T23:12:15.069Z,9.50
2019-04-24T23:14:43.106Z,9.23
2019-04-24T23:17:11.840Z,11.17
2019-04-24T23:19:39.596Z,9.33
2019-04-24T23:22:16.121Z,9.37
2019-04-24T23:24:54.063Z,10.40
2019-04-24T23:27:27.837Z,8.90
2019-04-24T23:29:56.749Z,9.27
2019-04-24T23:32:25.660Z,10.43
2019-04-24T23:34:53.028Z,7.90
2019-04-24T23:37:20.304Z,8.43
2019-04-24T23:39:47.585Z,9.57
2019-04-24T23:42:14.872Z,9.97
2019-04-24T23:44:43.240Z,8.93
2019-04-24T23:47:10.700Z,8.07
2019-04-24T23:49:37.996Z,7.97
2019-04-24T23:52:05.270Z,9.13
2019-04-24T23:54:32.609Z,8.17
2019-04-24T23:56:59.908Z,7.50
2019-04-24T23:59:27.189Z,8.00
